createdAt,value
2022-10-11T00:00:43.973Z,98288.69
2022-10-11T00:03:31.303Z,98288.70
2022-10-11T00:05:59.115Z,98288.87
2022-10-11T00:08:26.888Z,98285.39
2022-10-11T00:11:00.002Z,98286.65
2022-10-11T00:13:28.887Z,98284.05
2022-10-11T00:15:57.743Z,98284.20
2022-10-11T00:18:26.710Z,98284.20
2022-10-11T00:21:07.147Z,98286.65
2022-10-11T00:23:35.584Z,98288.77
2022-10-11T00:26:06.438Z,98285.78
2022-10-11T00:28:35.158Z,98288.05
2022-10-11T00:31:06.688Z,98283.36
2022-10-11T00:33:35.661Z,98279.34
2022-10-11T00:36:04.796Z,98278.99
2022-10-11T00:38:32.877Z,98277.59
2022-10-11T00:41:01.299Z,98277.41
2022-10-11T00:43:31.133Z,98276.88
2022-10-11T00:46:03.199Z,98276.89
2022-10-11T00:48:44.745Z,98273.23
2022-10-11T00:51:26.061Z,98274.29
2022-10-11T00:53:54.163Z,98271.34
2022-10-11T00:56:29.649Z,98267.90
2022-10-11T00:59:01.429Z,98264.61
2022-10-11T01:01:29.298Z,98265.83
2022-10-11T01:03:57.699Z,98266.15
2022-10-11T01:06:25.869Z,98265.62
2022-10-11T01:08:53.660Z,98266.67
2022-10-11T01:11:24.273Z,98263.02
2022-10-11T01:13:52.040Z,98262.49
2022-10-11T01:16:27.936Z,98258.67
2022-10-11T01:19:17.212Z,98259.19
2022-10-11T01:22:03.440Z,98255.16
2022-10-11T01:24:52.465Z,98257.41
2022-10-11T01:27:41.624Z,98254.24
2022-10-11T01:30:21.273Z,98255.80
2022-10-11T01:33:10.614Z,98260.14
2022-10-11T01:36:16.498Z,98257.33
2022-10-11T01:38:46.978Z,98256.79
2022-10-11T01:41:22.052Z,98254.86
2022-10-11T01:43:53.583Z,98254.85
2022-10-11T01:46:21.896Z,98251.37
2022-10-11T01:48:55.644Z,98247.90
2022-10-11T01:51:29.044Z,98247.89
2022-10-11T01:54:35.217Z,98246.48
2022-10-11T01:57:34.720Z,98250.35
2022-10-11T02:00:03.560Z,98249.84
2022-10-11T02:02:46.625Z,98245.51
2022-10-11T02:05:26.229Z,98249.17
2022-10-11T02:08:07.383Z,98247.79
2022-10-11T02:10:42.737Z,98249.55
2022-10-11T02:13:21.987Z,98245.02
2022-10-11T02:15:52.412Z,98250.77
2022-10-11T02:18:26.053Z,98251.13
2022-10-11T02:20:57.452Z,98245.36
2022-10-11T02:23:34.825Z,98244.13
2022-10-11T02:26:06.650Z,98246.57
2022-10-11T02:28:38.272Z,98244.66
2022-10-11T02:31:08.306Z,98241.52
2022-10-11T02:33:43.182Z,98241.86
2022-10-11T02:36:20.735Z,98240.13
2022-10-11T02:38:53.040Z,98239.08
2022-10-11T02:41:31.235Z,98236.98
2022-10-11T02:44:09.681Z,98230.17
2022-10-11T02:46:39.720Z,98229.64
2022-10-11T02:49:08.767Z,98231.41
2022-10-11T02:51:36.825Z,98231.41
2022-10-11T02:54:05.041Z,98230.00
2022-10-11T02:56:32.994Z,98228.28
2022-10-11T02:59:00.961Z,98226.19
2022-10-11T03:01:28.848Z,98232.27
2022-10-11T03:03:56.881Z,98228.94
2022-10-11T03:06:24.746Z,98225.77
2022-10-11T03:08:52.703Z,98225.05
2022-10-11T03:11:20.683Z,98224.34
2022-10-11T03:13:48.787Z,98226.76
2022-10-11T03:16:16.900Z,98232.85
2022-10-11T03:18:44.943Z,98233.25
2022-10-11T03:21:12.830Z,98235.04
2022-10-11T03:23:40.703Z,98234.19
2022-10-11T03:26:09.202Z,98235.07
2022-10-11T03:28:37.360Z,98232.11
2022-10-11T03:31:05.624Z,98228.46
2022-10-11T03:33:33.663Z,98228.48
2022-10-11T03:36:01.946Z,98226.24
2022-10-11T03:38:30.213Z,98230.27
2022-10-11T03:40:58.090Z,98226.95
2022-10-11T03:43:26.454Z,98230.81
2022-10-11T03:45:54.226Z,98231.00
2022-10-11T03:48:22.166Z,98234.67
2022-10-11T03:50:50.072Z,98236.93
2022-10-11T03:53:18.055Z,98237.27
2022-10-11T03:55:45.896Z,98238.30
2022-10-11T03:58:13.871Z,98239.86
2022-10-11T04:00:41.692Z,98240.39
2022-10-11T04:03:09.582Z,98237.79
2022-10-11T04:05:37.491Z,98241.26
2022-10-11T04:08:08.508Z,98244.38
2022-10-11T04:10:40.161Z,98244.02
2022-10-11T04:13:11.032Z,98242.98
2022-10-11T04:15:39.749Z,98241.24
2022-10-11T04:18:08.234Z,98240.55
2022-10-11T04:20:36.654Z,98241.05
2022-10-11T04:23:04.518Z,98242.79
2022-10-11T04:25:32.383Z,98245.23
2022-10-11T04:28:00.252Z,98247.49
2022-10-11T04:30:28.166Z,98244.54
2022-10-11T04:32:56.132Z,98239.48
2022-10-11T04:35:24.000Z,98242.45
2022-10-11T04:37:51.862Z,98240.88
2022-10-11T04:40:20.083Z,98240.55
2022-10-11T04:42:48.095Z,98238.63
2022-10-11T04:45:16.529Z,98240.19
2022-10-11T04:47:44.430Z,98241.07
2022-10-11T04:50:12.312Z,98241.77
2022-10-11T04:52:40.164Z,98243.35
2022-10-11T04:55:09.046Z,98244.94
2022-10-11T04:57:37.778Z,98248.60
2022-10-11T05:00:06.121Z,98248.27
2022-10-11T05:02:34.515Z,98248.96
2022-10-11T05:05:02.533Z,98249.33
2022-10-11T05:07:30.766Z,98251.23
2022-10-11T05:09:59.263Z,98257.86
2022-10-11T05:12:27.836Z,98263.95
2022-10-11T05:14:55.984Z,98267.61
2022-10-11T05:17:23.921Z,98270.39
2022-10-11T05:19:53.016Z,98263.26
2022-10-11T05:22:21.118Z,98264.98
2022-10-11T05:24:49.055Z,98265.85
2022-10-11T05:27:17.079Z,98263.05
2022-10-11T05:29:44.939Z,98263.41
2022-10-11T05:32:12.895Z,98261.15
2022-10-11T05:34:41.006Z,98260.82
2022-10-11T05:37:09.020Z,98261.88
2022-10-11T05:39:37.731Z,98264.32
2022-10-11T05:42:09.767Z,98270.94
2022-10-11T05:44:38.637Z,98276.15
2022-10-11T05:47:07.094Z,98278.23
2022-10-11T05:49:35.250Z,98277.89
2022-10-11T05:52:03.293Z,98284.33
2022-10-11T05:54:32.554Z,98293.02
2022-10-11T05:57:00.819Z,98298.59
2022-10-11T05:59:29.179Z,98296.86
2022-10-11T06:01:57.353Z,98296.33
2022-10-11T06:04:25.638Z,98298.77
2022-10-11T06:06:54.079Z,98303.65
2022-10-11T06:09:22.663Z,98299.81
2022-10-11T06:11:50.917Z,98296.50
2022-10-11T06:14:20.173Z,98294.42
2022-10-11T06:16:48.211Z,98299.12
2022-10-11T06:19:16.614Z,98306.09
2022-10-11T06:21:46.114Z,98307.98
2022-10-11T06:24:14.817Z,98306.23
2022-10-11T06:26:42.902Z,98300.45
2022-10-11T06:29:11.127Z,98300.61
2022-10-11T06:31:39.424Z,98304.08
2022-10-11T06:34:07.855Z,98307.03
2022-10-11T06:36:36.308Z,98302.14
2022-10-11T06:39:04.556Z,98303.51
2022-10-11T06:41:32.665Z,98306.14
2022-10-11T06:44:00.668Z,98304.20
2022-10-11T06:46:32.467Z,98308.21
2022-10-11T06:49:00.446Z,98312.58
2022-10-11T06:51:30.354Z,98309.25
2022-10-11T06:54:00.108Z,98311.83
2022-10-11T06:56:31.348Z,98314.76
2022-10-11T06:59:00.007Z,98316.64
2022-10-11T07:01:29.367Z,98317.61
2022-10-11T07:03:58.867Z,98322.73
2022-10-11T07:06:29.466Z,98328.23
2022-10-11T07:09:02.002Z,98330.36
2022-10-11T07:11:30.885Z,98325.70
2022-10-11T07:14:01.730Z,98323.14
2022-10-11T07:16:30.587Z,98320.95
2022-10-11T07:19:01.557Z,98320.17
2022-10-11T07:21:32.158Z,98314.96
2022-10-11T07:24:01.241Z,98308.44
2022-10-11T07:26:35.304Z,98305.26
2022-10-11T07:29:07.939Z,98307.05
2022-10-11T07:31:38.349Z,98301.96
2022-10-11T07:34:06.988Z,98301.75
2022-10-11T07:36:35.455Z,98302.42
2022-10-11T07:39:06.151Z,98303.92
2022-10-11T07:41:34.697Z,98302.09
2022-10-11T07:44:03.425Z,98306.70
2022-10-11T07:46:32.238Z,98308.50
2022-10-11T07:49:00.329Z,98306.05
2022-10-11T07:51:28.819Z,98301.05
2022-10-11T07:53:57.517Z,98303.68
2022-10-11T07:56:28.344Z,98303.46
2022-10-11T07:58:59.135Z,98304.70
2022-10-11T08:01:28.766Z,98302.46
2022-10-11T08:03:57.947Z,98303.91
2022-10-11T08:06:30.681Z,98302.01
2022-10-11T08:09:01.171Z,98302.36
2022-10-11T08:11:32.466Z,98299.77
2022-10-11T08:14:01.869Z,98304.95
2022-10-11T08:16:30.179Z,98310.10
2022-10-11T08:18:59.358Z,98307.61
2022-10-11T08:21:27.972Z,98297.11
2022-10-11T08:23:57.142Z,98294.29
2022-10-11T08:26:25.343Z,98290.40
2022-10-11T08:28:53.896Z,98291.56
2022-10-11T08:31:22.116Z,98289.95
2022-10-11T08:33:50.237Z,98285.27
2022-10-11T08:36:18.279Z,98286.04
2022-10-11T08:38:46.441Z,98289.90
2022-10-11T08:41:45.605Z,98285.23
2022-10-11T08:44:13.692Z,98284.49
2022-10-11T08:46:47.916Z,98283.92
2022-10-11T08:49:20.044Z,98283.21
2022-10-11T08:51:53.374Z,98283.79
2022-10-11T08:54:36.117Z,98282.24
2022-10-11T08:57:10.053Z,98279.49
2022-10-11T08:59:55.962Z,98277.66
2022-10-11T09:03:06.526Z,98276.86
2022-10-11T09:06:01.035Z,98276.19
2022-10-11T09:08:41.211Z,98276.91
2022-10-11T09:11:31.131Z,98275.27
2022-10-11T09:13:59.471Z,98270.23
2022-10-11T09:17:07.524Z,98274.42
2022-10-11T09:19:52.524Z,98274.71
2022-10-11T09:22:20.687Z,98276.04
2022-10-11T09:24:59.143Z,98271.57
2022-10-11T09:28:01.192Z,98266.32
2022-10-11T09:30:27.567Z,98265.49
2022-10-11T09:33:14.937Z,98272.71
2022-10-11T09:35:48.440Z,98277.86
2022-10-11T09:38:40.066Z,98274.35
2022-10-11T09:41:12.111Z,98269.84
2022-10-11T09:43:40.491Z,98268.80
2022-10-11T09:46:36.278Z,98264.50
2022-10-11T09:49:08.029Z,98262.03
2022-10-11T09:51:37.896Z,98258.84
2022-10-11T09:54:07.150Z,98259.48
2022-10-11T09:56:42.438Z,98253.98
2022-10-11T09:59:29.624Z,98252.51
2022-10-11T10:02:19.946Z,98253.55
2022-10-11T10:05:03.591Z,98251.49
2022-10-11T10:07:35.750Z,98252.05
2022-10-11T10:10:26.812Z,98247.84
2022-10-11T10:13:01.601Z,98242.98
2022-10-11T10:15:38.429Z,98241.96
2022-10-11T10:18:10.715Z,98242.09
2022-10-11T10:20:39.394Z,98240.98
2022-10-11T10:23:22.666Z,98236.77
2022-10-11T10:25:51.890Z,98235.66
2022-10-11T10:28:26.328Z,98235.78
2022-10-11T10:30:59.270Z,98230.88
2022-10-11T10:33:33.596Z,98225.26
2022-10-11T10:36:13.505Z,98226.83
2022-10-11T10:38:52.449Z,98225.02
2022-10-11T10:41:20.794Z,98221.91
2022-10-11T10:43:56.011Z,98219.95
2022-10-11T10:46:40.916Z,98214.97
2022-10-11T10:49:53.989Z,98210.48
2022-10-11T10:52:44.227Z,98206.16
2022-10-11T10:55:45.361Z,98203.73
2022-10-11T10:58:25.921Z,98199.56
2022-10-11T11:01:00.020Z,98197.17
2022-10-11T11:03:57.257Z,98198.21
2022-10-11T11:06:53.399Z,98191.68
2022-10-11T11:09:56.738Z,98188.18
2022-10-11T11:12:34.371Z,98185.11
2022-10-11T11:15:38.099Z,98182.66
2022-10-11T11:18:26.016Z,98178.39
2022-10-11T11:21:13.004Z,98176.94
2022-10-11T11:23:56.436Z,98172.65
2022-10-11T11:26:30.485Z,98169.48
2022-10-11T11:29:04.942Z,98167.94
2022-10-11T11:32:04.052Z,98170.24
2022-10-11T11:34:42.085Z,98170.27
2022-10-11T11:37:39.007Z,98166.64
2022-10-11T11:40:14.059Z,98163.73
2022-10-11T11:42:45.280Z,98163.01
2022-10-11T11:45:45.765Z,98155.70
2022-10-11T11:48:20.882Z,98152.65
2022-10-11T11:51:13.120Z,98147.19
2022-10-11T11:53:49.700Z,98142.86
2022-10-11T11:56:41.015Z,98138.06
2022-10-11T11:59:21.355Z,98135.44
2022-10-11T12:01:58.202Z,98134.33
2022-10-11T12:04:37.340Z,98131.13
2022-10-11T12:07:16.479Z,98129.02
2022-10-11T12:09:54.929Z,98128.73
2022-10-11T12:12:34.150Z,98128.23
2022-10-11T12:15:20.630Z,98123.17
2022-10-11T12:17:55.744Z,98120.79
2022-10-11T12:20:32.994Z,98121.00
2022-10-11T12:23:04.155Z,98122.95
2022-10-11T12:25:37.195Z,98117.52
2022-10-11T12:28:43.689Z,98116.67
2022-10-11T12:31:21.195Z,98114.06
2022-10-11T12:34:14.767Z,98117.90
2022-10-11T12:36:49.873Z,98118.58
2022-10-11T12:39:21.490Z,98114.78
2022-10-11T12:41:50.571Z,98116.46
2022-10-11T12:44:18.886Z,98114.09
2022-10-11T12:46:57.743Z,98115.38
2022-10-11T12:49:38.018Z,98111.99
2022-10-11T12:52:34.165Z,98113.61
2022-10-11T12:55:05.413Z,98108.64
2022-10-11T12:57:56.610Z,98104.08
2022-10-11T13:00:34.707Z,98102.23
2022-10-11T13:03:21.705Z,98104.30
2022-10-11T13:05:53.766Z,98101.27
2022-10-11T13:08:30.827Z,98096.30
2022-10-11T13:11:03.501Z,98092.59
2022-10-11T13:13:40.518Z,98091.55
2022-10-11T13:16:14.601Z,98091.91
2022-10-11T13:18:45.623Z,98087.70
2022-10-11T13:21:30.096Z,98084.23
2022-10-11T13:24:01.032Z,98081.38
2022-10-11T13:26:31.445Z,98080.55
2022-10-11T13:29:01.013Z,98083.08
2022-10-11T13:31:29.224Z,98080.19
2022-10-11T13:33:59.336Z,98078.50
2022-10-11T13:36:27.901Z,98076.83
2022-10-11T13:38:59.493Z,98080.33
2022-10-11T13:41:30.858Z,98082.26
2022-10-11T13:44:00.527Z,98080.06
2022-10-11T13:46:31.123Z,98078.68
2022-10-11T13:49:26.321Z,98079.77
2022-10-11T13:52:03.272Z,98080.35
2022-10-11T13:54:54.807Z,98080.12
2022-10-11T13:57:33.906Z,98079.58
2022-10-11T14:00:07.829Z,98078.20
2022-10-11T14:02:47.088Z,98079.83
2022-10-11T14:05:26.386Z,98081.27
2022-10-11T14:07:54.923Z,98084.86
2022-10-11T14:10:24.081Z,98081.79
2022-10-11T14:13:22.181Z,98081.77
2022-10-11T14:16:20.414Z,98084.21
2022-10-11T14:18:59.005Z,98080.91
2022-10-11T14:21:47.810Z,98081.38
2022-10-11T14:24:17.890Z,98081.83
2022-10-11T14:26:49.729Z,98082.98
2022-10-11T14:29:24.972Z,98084.97
2022-10-11T14:31:59.450Z,98084.84
2022-10-11T14:34:28.209Z,98084.80
2022-10-11T14:36:56.613Z,98085.68
2022-10-11T14:39:27.860Z,98084.64
2022-10-11T14:41:55.990Z,98084.48
2022-10-11T14:44:24.728Z,98085.56
2022-10-11T14:46:54.837Z,98083.31
2022-10-11T14:49:29.124Z,98084.41
2022-10-11T14:51:58.839Z,98084.97
2022-10-11T14:54:29.564Z,98081.49
2022-10-11T14:57:00.838Z,98078.77
2022-10-11T14:59:37.035Z,98079.92
2022-10-11T15:02:07.377Z,98080.64
2022-10-11T15:04:35.866Z,98078.84
2022-10-11T15:07:04.728Z,98085.98
2022-10-11T15:09:32.999Z,98086.76
2022-10-11T15:12:00.988Z,98085.58
2022-10-11T15:14:29.002Z,98086.50
2022-10-11T15:16:57.119Z,98088.86
2022-10-11T15:19:25.751Z,98086.15
2022-10-11T15:21:53.824Z,98094.84
2022-10-11T15:24:22.205Z,98099.25
2022-10-11T15:26:50.572Z,98101.45
2022-10-11T15:29:19.310Z,98106.69
2022-10-11T15:31:47.176Z,98110.23
2022-10-11T15:34:15.298Z,98111.20
2022-10-11T15:36:43.151Z,98110.48
2022-10-11T15:39:33.940Z,98112.23
2022-10-11T15:42:01.931Z,98112.63
2022-10-11T15:44:29.986Z,98115.48
2022-10-11T15:46:58.407Z,98118.34
2022-10-11T15:49:26.469Z,98122.36
2022-10-11T15:51:54.467Z,98118.38
2022-10-11T15:54:22.394Z,98124.85
2022-10-11T15:56:50.261Z,98128.92
2022-10-11T15:59:18.070Z,98130.59
2022-10-11T16:01:47.068Z,98136.76
2022-10-11T16:04:14.887Z,98141.33
2022-10-11T16:06:42.872Z,98142.55
2022-10-11T16:09:10.802Z,98146.77
2022-10-11T16:11:38.753Z,98148.68
2022-10-11T16:14:06.784Z,98148.52
2022-10-11T16:16:34.780Z,98151.13
2022-10-11T16:19:02.832Z,98150.09
2022-10-11T16:21:30.732Z,98151.05
2022-10-11T16:23:58.862Z,98157.47
2022-10-11T16:26:27.192Z,98162.16
2022-10-11T16:28:56.759Z,98166.98
2022-10-11T16:31:24.870Z,98171.48
2022-10-11T16:33:53.116Z,98172.97
2022-10-11T16:36:32.560Z,98172.68
2022-10-11T16:39:02.196Z,98176.08
2022-10-11T16:41:29.986Z,98180.84
2022-10-11T16:43:57.938Z,98178.91
2022-10-11T16:46:25.887Z,98178.70
2022-10-11T16:48:58.523Z,98179.48
2022-10-11T16:51:26.672Z,98180.77
2022-10-11T16:53:54.522Z,98184.54
2022-10-11T16:56:25.245Z,98189.15
2022-10-11T16:58:54.403Z,98187.39
2022-10-11T17:01:23.169Z,98188.10
2022-10-11T17:03:52.039Z,98190.38
2022-10-11T17:06:20.073Z,98193.16
2022-10-11T17:08:48.006Z,98192.04
2022-10-11T17:11:17.751Z,98188.92
2022-10-11T17:13:46.237Z,98187.84
2022-10-11T17:16:15.248Z,98195.15
2022-10-11T17:18:43.985Z,98200.32
2022-10-11T17:21:15.097Z,98206.70
2022-10-11T17:23:44.048Z,98209.90
2022-10-11T17:26:18.730Z,98207.98
2022-10-11T17:28:47.808Z,98208.17
2022-10-11T17:31:15.923Z,98209.80
2022-10-11T17:33:44.259Z,98211.20
2022-10-11T17:36:36.556Z,98211.15
2022-10-11T17:39:07.464Z,98214.23
2022-10-11T17:41:35.827Z,98215.58
2022-10-11T17:44:05.530Z,98221.10
2022-10-11T17:46:35.103Z,98220.29
2022-10-11T17:49:05.319Z,98216.14
2022-10-11T17:51:35.947Z,98212.88
2022-10-11T17:54:04.755Z,98209.48
2022-10-11T17:56:37.706Z,98207.84
2022-10-11T17:59:07.324Z,98209.77
2022-10-11T18:01:36.339Z,98209.78
2022-10-11T18:04:06.190Z,98205.94
2022-10-11T18:06:39.027Z,98207.75
2022-10-11T18:09:06.971Z,98205.70
2022-10-11T18:11:35.507Z,98206.84
2022-10-11T18:14:05.261Z,98209.18
2022-10-11T18:16:33.796Z,98213.25
2022-10-11T18:19:03.695Z,98216.42
2022-10-11T18:21:34.631Z,98215.56
2022-10-11T18:24:05.623Z,98216.08
2022-10-11T18:26:34.464Z,98213.55
2022-10-11T18:29:02.536Z,98212.60
2022-10-11T18:31:33.866Z,98207.45
2022-10-11T18:34:03.787Z,98207.38
2022-10-11T18:36:32.832Z,98207.98
2022-10-11T18:39:03.821Z,98209.30
2022-10-11T18:41:33.739Z,98207.00
2022-10-11T18:44:04.774Z,98204.25
2022-10-11T18:46:33.164Z,98206.96
2022-10-11T18:49:02.293Z,98209.87
2022-10-11T18:51:38.074Z,98209.77
2022-10-11T18:54:07.514Z,98212.33
2022-10-11T18:56:37.133Z,98214.41
2022-10-11T18:59:06.566Z,98219.30
2022-10-11T19:01:38.409Z,98214.98
2022-10-11T19:04:08.946Z,98218.39
2022-10-11T19:06:43.320Z,98219.15
2022-10-11T19:09:14.483Z,98216.51
2022-10-11T19:11:42.346Z,98214.51
2022-10-11T19:14:14.896Z,98214.44
2022-10-11T19:16:46.356Z,98220.52
2022-10-11T19:19:14.124Z,98221.16
2022-10-11T19:21:42.250Z,98220.61
2022-10-11T19:24:10.026Z,98220.39
2022-10-11T19:26:40.471Z,98224.59
2022-10-11T19:29:19.035Z,98223.73
2022-10-11T19:31:53.670Z,98225.50
2022-10-11T19:34:23.868Z,98224.67
2022-10-11T19:36:53.452Z,98224.77
2022-10-11T19:39:22.863Z,98222.05
2022-10-11T19:41:51.262Z,98224.42
2022-10-11T19:44:19.409Z,98227.48
2022-10-11T19:46:51.966Z,98232.44
2022-10-11T19:49:26.012Z,98238.48
2022-10-11T19:51:55.712Z,98242.44
2022-10-11T19:54:24.143Z,98244.23
2022-10-11T19:56:52.805Z,98247.97
2022-10-11T19:59:20.677Z,98246.55
2022-10-11T20:01:52.720Z,98248.97
2022-10-11T20:07:10.005Z,98245.20
2022-10-11T20:09:37.872Z,98245.63
2022-10-11T20:12:05.921Z,98244.40
2022-10-11T20:14:33.790Z,98242.38
2022-10-11T20:17:01.617Z,98243.20
2022-10-11T20:19:31.074Z,98248.08
2022-10-11T20:22:01.097Z,98248.55
2022-10-11T20:24:33.325Z,98250.49
2022-10-11T20:27:06.503Z,98250.83
2022-10-11T20:29:34.724Z,98254.51
2022-10-11T20:32:02.676Z,98252.36
2022-10-11T20:34:30.739Z,98251.25
2022-10-11T20:36:59.382Z,98249.65
2022-10-11T20:39:27.161Z,98249.66
2022-10-11T20:41:55.170Z,98246.52
2022-10-11T20:44:23.029Z,98245.24
2022-10-11T20:46:50.856Z,98245.60
2022-10-11T20:49:20.122Z,98245.08
2022-10-11T20:51:48.733Z,98249.09
2022-10-11T20:54:17.145Z,98247.36
2022-10-11T20:56:45.009Z,98249.52
2022-10-11T20:59:12.842Z,98251.10
2022-10-11T21:01:42.322Z,98249.47
2022-10-11T21:04:17.858Z,98253.48
2022-10-11T21:06:45.612Z,98249.80
2022-10-11T21:09:16.408Z,98251.48
2022-10-11T21:11:45.673Z,98255.71
2022-10-11T21:14:14.041Z,98256.66
2022-10-11T21:16:42.159Z,98253.26
2022-10-11T21:19:14.134Z,98251.98
2022-10-11T21:21:43.224Z,98250.19
2022-10-11T21:24:10.975Z,98251.89
2022-10-11T21:26:39.166Z,98250.81
2022-10-11T21:29:08.336Z,98248.90
2022-10-11T21:31:36.458Z,98249.11
2022-10-11T21:34:05.285Z,98246.52
2022-10-11T21:36:33.703Z,98248.19
2022-10-11T21:39:01.692Z,98243.56
2022-10-11T21:41:30.328Z,98246.81
2022-10-11T21:43:58.593Z,98246.39
2022-10-11T21:46:54.210Z,98249.67
2022-10-11T21:49:16.780Z,98248.51
2022-10-11T21:51:45.216Z,98246.63
2022-10-11T21:54:13.018Z,98246.46
2022-10-11T21:56:40.827Z,98245.05
2022-10-11T21:59:12.084Z,98248.39
2022-10-11T22:01:41.850Z,98251.19
2022-10-11T22:04:11.003Z,98252.06
2022-10-11T22:06:40.491Z,98253.59
2022-10-11T22:09:08.999Z,98250.54
2022-10-11T22:11:37.717Z,98254.67
2022-10-11T22:14:05.739Z,98252.70
2022-10-11T22:16:34.987Z,98253.73
2022-10-11T22:19:02.871Z,98257.04
2022-10-11T22:21:30.986Z,98254.79
2022-10-11T22:23:58.805Z,98255.18
2022-10-11T22:26:32.330Z,98254.54
2022-10-11T22:29:00.695Z,98255.34
2022-10-11T22:31:30.114Z,98252.08
2022-10-11T22:34:00.225Z,98254.08
2022-10-11T22:36:30.641Z,98254.64
2022-10-11T22:38:59.170Z,98249.76
2022-10-11T22:41:27.002Z,98249.77
2022-10-11T22:43:54.768Z,98252.90
2022-10-11T22:46:22.562Z,98254.10
2022-10-11T22:48:50.248Z,98258.98
2022-10-11T22:51:18.127Z,98260.14
2022-10-11T22:53:45.881Z,98260.60
2022-10-11T22:56:13.894Z,98261.41
2022-10-11T22:58:41.700Z,98260.69
2022-10-11T23:01:12.068Z,98262.27
2022-10-11T23:03:40.036Z,98260.17
2022-10-11T23:06:08.552Z,98260.23
2022-10-11T23:08:36.381Z,98261.92
2022-10-11T23:11:06.316Z,98257.11
2022-10-11T23:13:35.048Z,98260.34
2022-10-11T23:16:11.193Z,98260.59
2022-10-11T23:18:39.221Z,98265.06
2022-10-11T23:21:07.886Z,98261.43
2022-10-11T23:23:35.947Z,98262.33
2022-10-11T23:26:10.580Z,98261.31
2022-10-11T23:28:38.837Z,98265.52
2022-10-11T23:31:13.053Z,98265.51
2022-10-11T23:33:40.913Z,98269.90
2022-10-11T23:36:26.762Z,98269.01
2022-10-11T23:38:55.781Z,98269.88
2022-10-11T23:41:26.545Z,98268.63
2022-10-11T23:43:54.411Z,98268.44
2022-10-11T23:46:22.436Z,98265.48
2022-10-11T23:48:50.199Z,98264.79
2022-10-11T23:51:18.068Z,98264.30
2022-10-11T23:53:45.810Z,98264.36
2022-10-11T23:56:13.534Z,98266.05
2022-10-11T23:58:41.472Z,98265.29
